Time;durP1;ratioP1;P1;durP2;ratioP2;P2;SDS_P1;SDS_P2;PMS_P1;PMS_P2;Temp;Humidity;BMP_temperature;BMP_pressure;BME280_temperature;BME280_humidity;BME280_pressure;Samples;Min_cycle;Max_cycle;Signal;HPM_P1;HPM_P2
2022/05/31 00:02:22;;;;;;;12.98;4.03;;;10.60;99.90;;;;;;4890565;29;20045;-57
2022/05/31 00:04:50;;;;;;;11.68;3.72;;;10.60;99.90;;;;;;4891409;29;20505;-58
2022/05/31 00:07:19;;;;;;;9.40;3.55;;;10.60;99.90;;;;;;4889772;29;20068;-57
2022/05/31 00:09:47;;;;;;;9.27;3.55;;;10.60;99.90;;;;;;4894175;29;20055;-56
2022/05/31 00:12:15;;;;;;;8.70;3.20;;;10.60;99.90;;;;;;4894106;29;20049;-55
2022/05/31 00:14:43;;;;;;;6.15;3.00;;;10.60;99.90;;;;;;4893825;29;20052;-56
2022/05/31 00:17:11;;;;;;;10.20;3.78;;;10.60;99.90;;;;;;4893390;29;20045;-56
2022/05/31 00:19:38;;;;;;;10.73;4.10;;;10.60;99.90;;;;;;4893299;29;20048;-55
2022/05/31 00:22:14;;;;;;;9.25;3.58;;;10.60;99.90;;;;;;4889061;29;20053;-56
2022/05/31 00:24:42;;;;;;;8.77;3.30;;;10.60;99.90;;;;;;4894695;29;20052;-56
2022/05/31 00:27:13;;;;;;;9.48;3.85;;;10.60;99.90;;;;;;4894112;29;20052;-56
2022/05/31 00:29:41;;;;;;;10.60;3.45;;;10.60;99.90;;;;;;4893458;29;20051;-56
2022/05/31 00:32:11;;;;;;;7.40;3.25;;;10.50;99.90;;;;;;4893145;29;20041;-57
2022/05/31 00:34:42;;;;;;;14.05;3.50;;;10.50;99.90;;;;;;4893115;29;20079;-56
2022/05/31 00:37:10;;;;;;;10.75;3.42;;;10.50;99.90;;;;;;4892821;29;20041;-57
2022/05/31 00:39:38;;;;;;;12.88;3.75;;;10.50;99.90;;;;;;4893126;29;20071;-57
2022/05/31 00:42:13;;;;;;;10.48;3.95;;;10.40;99.90;;;;;;4894334;29;20052;-57
2022/05/31 00:44:41;;;;;;;9.35;3.35;;;10.40;99.90;;;;;;4878466;29;20059;-56
2022/05/31 00:47:33;;;;;;;12.70;3.30;;;10.40;99.90;;;;;;4895069;29;20050;-57
2022/05/31 00:50:08;;;;;;;8.90;3.45;;;10.40;99.90;;;;;;4891831;29;20063;-56
2022/05/31 00:52:42;;;;;;;10.73;3.80;;;10.40;99.90;;;;;;4888289;29;20099;-57
2022/05/31 00:55:22;;;;;;;11.65;4.30;;;10.40;99.90;;;;;;4891208;29;20056;-56
2022/05/31 00:58:24;;;;;;;7.70;3.58;;;10.40;99.90;;;;;;4884911;29;20048;-56
2022/05/31 01:00:52;;;;;;;11.20;4.05;;;10.40;99.90;;;;;;4859580;29;20517;-59
2022/05/31 01:03:23;;;;;;;9.30;4.10;;;10.40;99.90;;;;;;4886111;29;20049;-55
2022/05/31 01:05:51;;;;;;;8.13;4.20;;;10.40;99.90;;;;;;4889550;29;20075;-57
2022/05/31 01:08:20;;;;;;;14.75;4.85;;;10.50;99.90;;;;;;4881854;29;20485;-60
2022/05/31 01:11:20;;;;;;;12.48;5.80;;;10.40;99.90;;;;;;4892219;29;20063;-57
2022/05/31 01:14:14;;;;;;;10.65;5.13;;;10.50;99.90;;;;;;4893674;29;20060;-56
2022/05/31 01:17:06;;;;;;;8.52;5.15;;;10.50;99.90;;;;;;4887717;29;20051;-58
2022/05/31 01:19:56;;;;;;;10.68;4.55;;;10.50;99.90;;;;;;4884501;29;20044;-58
2022/05/31 01:22:29;;;;;;;13.23;5.18;;;10.50;99.90;;;;;;4889345;29;20033;-57
2022/05/31 01:25:03;;;;;;;10.77;5.30;;;10.50;99.90;;;;;;4876600;29;20056;-57
2022/05/31 01:27:52;;;;;;;11.80;5.82;;;10.50;99.90;;;;;;4891885;29;20064;-57
2022/05/31 01:30:21;;;;;;;6.38;4.78;;;10.50;99.90;;;;;;4892379;29;20056;-57
2022/05/31 01:33:10;;;;;;;11.02;6.15;;;10.50;99.90;;;;;;4887916;29;20398;-57
2022/05/31 01:35:38;;;;;;;12.10;6.63;;;10.50;99.90;;;;;;4892795;29;20053;-57
2022/05/31 01:38:15;;;;;;;10.52;5.25;;;10.50;99.90;;;;;;4894088;29;20047;-57
2022/05/31 01:41:13;;;;;;;9.48;5.60;;;10.50;99.90;;;;;;4890860;29;20386;-57
2022/05/31 01:43:43;;;;;;;13.65;7.50;;;10.50;99.90;;;;;;4877600;29;20056;-57
2022/05/31 01:46:17;;;;;;;14.57;7.47;;;10.50;99.90;;;;;;4882873;29;20527;-57
2022/05/31 01:48:46;;;;;;;13.18;7.47;;;10.50;99.90;;;;;;4892278;29;20052;-57
2022/05/31 01:51:14;;;;;;;14.35;7.93;;;10.50;99.90;;;;;;4895216;29;20047;-57
2022/05/31 01:53:42;;;;;;;13.15;8.07;;;10.50;99.90;;;;;;4876675;29;20393;-57
2022/05/31 01:56:11;;;;;;;12.95;7.57;;;10.60;99.90;;;;;;4891533;29;20051;-58
2022/05/31 01:58:42;;;;;;;12.65;7.93;;;10.60;99.90;;;;;;4892437;29;20052;-57
2022/05/31 02:01:10;;;;;;;14.55;7.82;;;10.60;99.90;;;;;;4893019;29;20048;-57
2022/05/31 02:03:40;;;;;;;14.27;7.15;;;10.60;99.90;;;;;;4896753;29;20045;-57
2022/05/31 02:06:33;;;;;;;14.82;7.78;;;10.60;99.90;;;;;;4896954;29;20052;-57
2022/05/31 02:09:02;;;;;;;11.52;6.82;;;10.60;99.90;;;;;;4895362;29;20048;-57
2022/05/31 02:11:30;;;;;;;14.88;6.70;;;10.60;99.90;;;;;;4896042;29;20056;-57
2022/05/31 02:14:11;;;;;;;10.23;6.75;;;10.50;99.90;;;;;;4898124;29;20398;-57
2022/05/31 02:16:40;;;;;;;11.80;6.78;;;10.50;99.90;;;;;;4897193;29;20060;-57
2022/05/31 02:19:37;;;;;;;11.85;6.75;;;10.50;99.90;;;;;;4879780;29;20053;-57
2022/05/31 02:22:15;;;;;;;9.52;6.00;;;10.50;99.90;;;;;;4897152;29;20048;-57
2022/05/31 02:24:44;;;;;;;10.10;5.43;;;10.50;99.90;;;;;;4898333;29;20053;-57
2022/05/31 02:27:14;;;;;;;7.75;5.65;;;10.40;99.90;;;;;;4897825;29;20071;-57
2022/05/31 02:29:42;;;;;;;10.38;5.55;;;10.40;99.90;;;;;;4898219;29;20446;-57
2022/05/31 02:32:13;;;;;;;11.05;4.47;;;10.40;99.90;;;;;;4896797;29;20048;-58
2022/05/31 02:34:44;;;;;;;9.13;5.25;;;10.40;99.90;;;;;;4894743;29;20040;-56
2022/05/31 02:37:14;;;;;;;8.73;4.80;;;10.40;99.90;;;;;;4894589;29;20398;-57
2022/05/31 02:39:42;;;;;;;9.63;4.10;;;10.40;99.90;;;;;;4897205;29;20044;-56
2022/05/31 02:42:11;;;;;;;9.52;3.95;;;10.40;99.90;;;;;;4896139;29;20478;-57
2022/05/31 02:44:39;;;;;;;8.93;3.85;;;10.30;99.90;;;;;;4896957;29;20512;-56
2022/05/31 02:47:07;;;;;;;10.20;4.15;;;10.30;99.90;;;;;;4897165;29;20044;-57
2022/05/31 02:49:37;;;;;;;6.60;3.38;;;10.30;99.90;;;;;;4896375;29;20040;-57
2022/05/31 02:52:05;;;;;;;5.22;3.00;;;10.30;99.90;;;;;;4897814;29;20067;-56
2022/05/31 02:54:33;;;;;;;5.15;3.03;;;10.30;99.90;;;;;;4897651;29;20084;-56
2022/05/31 02:57:19;;;;;;;6.57;2.92;;;10.20;99.90;;;;;;4895809;29;20045;-56
2022/05/31 03:00:22;;;;;;;4.47;3.00;;;10.20;99.90;;;;;;4895230;29;20040;-56
2022/05/31 03:03:10;;;;;;;4.22;2.50;;;10.10;99.90;;;;;;4895405;29;20068;-57
2022/05/31 03:05:56;;;;;;;4.53;2.40;;;10.10;99.90;;;;;;4898535;29;20489;-57
2022/05/31 03:08:40;;;;;;;6.90;2.30;;;10.00;99.90;;;;;;4896346;29;20052;-57
2022/05/31 03:11:46;;;;;;;6.30;2.78;;;9.90;99.90;;;;;;4895226;29;20060;-58
2022/05/31 03:14:28;;;;;;;5.18;2.25;;;9.90;99.90;;;;;;4894389;29;20041;-56
2022/05/31 03:17:14;;;;;;;4.38;3.00;;;9.90;99.90;;;;;;4894424;29;20063;-58
2022/05/31 03:19:52;;;;;;;6.15;2.55;;;9.80;99.90;;;;;;4896293;29;20048;-58
2022/05/31 03:22:26;;;;;;;5.13;2.50;;;9.80;99.90;;;;;;4907746;29;20040;-59
2022/05/31 03:25:02;;;;;;;4.03;2.30;;;9.80;99.90;;;;;;4879163;29;20378;-57
2022/05/31 03:27:30;;;;;;;8.75;2.40;;;9.70;99.90;;;;;;4880383;29;20048;-58
2022/05/31 03:30:00;;;;;;;5.90;3.13;;;9.70;99.90;;;;;;4892665;29;20048;-56
2022/05/31 03:32:30;;;;;;;9.07;2.95;;;9.70;99.90;;;;;;4887347;29;20049;-56
2022/05/31 03:34:58;;;;;;;5.90;2.17;;;9.70;99.90;;;;;;4880362;29;20670;-57
2022/05/31 03:37:27;;;;;;;4.18;1.42;;;9.70;99.90;;;;;;4894078;29;20115;-56
2022/05/31 03:39:55;;;;;;;3.25;1.80;;;9.70;99.90;;;;;;4893889;29;20047;-57
2022/05/31 03:42:22;;;;;;;3.47;2.47;;;9.70;99.90;;;;;;4893447;29;20044;-57
2022/05/31 03:44:51;;;;;;;5.15;2.13;;;9.60;99.90;;;;;;4895795;29;20056;-58
2022/05/31 03:47:37;;;;;;;5.38;2.00;;;9.60;99.90;;;;;;4897970;29;20041;-57
2022/05/31 03:50:23;;;;;;;3.97;1.77;;;9.60;99.90;;;;;;4894725;29;20060;-55
2022/05/31 03:52:52;;;;;;;4.15;2.03;;;9.60;99.90;;;;;;4897338;29;20056;-58
2022/05/31 03:55:20;;;;;;;5.20;2.25;;;9.60;99.90;;;;;;4895467;29;20066;-57
2022/05/31 03:57:51;;;;;;;4.70;2.22;;;9.50;99.90;;;;;;4893770;29;20048;-57
2022/05/31 04:00:41;;;;;;;7.15;2.67;;;9.50;99.90;;;;;;4891279;29;20044;-58
2022/05/31 04:03:22;;;;;;;3.70;1.75;;;9.40;99.90;;;;;;4894000;29;20056;-58
2022/05/31 04:05:52;;;;;;;2.80;1.42;;;9.40;99.90;;;;;;4893368;29;20059;-58
2022/05/31 04:08:22;;;;;;;2.08;1.48;;;9.40;99.90;;;;;;4894599;29;20053;-58
2022/05/31 04:10:50;;;;;;;1.63;1.05;;;9.40;99.90;;;;;;4894760;29;20049;-55
2022/05/31 04:13:18;;;;;;;1.23;1.05;;;9.30;99.90;;;;;;4910621;29;20047;-56
2022/05/31 04:16:13;;;;;;;2.97;1.13;;;9.30;99.90;;;;;;4895433;29;20062;-58
2022/05/31 04:18:56;;;;;;;2.95;1.17;;;9.30;99.90;;;;;;4893304;29;21973;-58
2022/05/31 04:21:24;;;;;;;3.80;1.45;;;9.30;99.90;;;;;;4894325;29;20048;-58
2022/05/31 04:23:58;;;;;;;2.45;1.27;;;9.20;99.90;;;;;;4895828;29;20065;-58
2022/05/31 04:26:44;;;;;;;1.92;1.20;;;9.20;99.90;;;;;;4896656;29;20549;-57
2022/05/31 04:29:30;;;;;;;1.58;1.20;;;9.20;99.90;;;;;;4894015;29;20048;-57
2022/05/31 04:32:11;;;;;;;4.38;1.38;;;9.20;99.90;;;;;;4895244;29;20060;-58
2022/05/31 04:34:39;;;;;;;4.43;1.25;;;9.20;99.90;;;;;;4893946;29;20061;-58
2022/05/31 04:37:07;;;;;;;2.78;1.05;;;9.30;99.90;;;;;;4895761;29;20074;-57
2022/05/31 04:40:05;;;;;;;2.70;1.30;;;9.20;99.90;;;;;;4875105;29;20057;-58
2022/05/31 04:42:53;;;;;;;2.38;1.50;;;9.30;99.90;;;;;;4885406;29;20063;-57
2022/05/31 04:45:39;;;;;;;3.40;1.67;;;9.30;99.90;;;;;;4893828;29;20041;-58
2022/05/31 04:48:30;;;;;;;3.78;1.80;;;9.30;99.90;;;;;;4878562;29;20052;-58
2022/05/31 04:50:58;;;;;;;2.97;2.00;;;9.30;99.90;;;;;;4890024;29;20041;-58
2022/05/31 04:53:33;;;;;;;2.20;1.70;;;9.30;99.90;;;;;;4875149;29;20405;-57
2022/05/31 04:56:28;;;;;;;4.53;1.83;;;9.40;99.90;;;;;;4888099;29;20048;-57
2022/05/31 04:59:03;;;;;;;6.60;2.20;;;9.40;99.90;;;;;;4863991;29;20128;-58
2022/05/31 05:01:33;;;;;;;4.60;1.92;;;9.40;99.90;;;;;;4841392;29;20049;-57
2022/05/31 05:04:05;;;;;;;3.95;1.77;;;9.40;99.90;;;;;;4886478;29;20049;-57
2022/05/31 05:06:42;;;;;;;4.80;1.88;;;9.50;99.90;;;;;;4871146;29;20041;-59
2022/05/31 05:09:11;;;;;;;5.38;2.20;;;9.50;99.90;;;;;;4872026;29;20049;-58
2022/05/31 05:11:52;;;;;;;4.10;1.98;;;9.60;99.90;;;;;;4881454;29;20052;-57
2022/05/31 05:14:29;;;;;;;6.32;2.28;;;9.60;99.90;;;;;;4888480;29;20056;-59
2022/05/31 05:17:03;;;;;;;6.45;1.98;;;9.60;99.90;;;;;;4892062;29;20049;-57
2022/05/31 05:19:37;;;;;;;6.53;2.45;;;9.70;99.90;;;;;;4892148;29;20052;-58
2022/05/31 05:22:05;;;;;;;5.47;2.33;;;9.70;99.90;;;;;;4892698;29;20044;-58
2022/05/31 05:24:33;;;;;;;3.97;2.10;;;9.70;99.90;;;;;;4886775;29;20049;-57
2022/05/31 05:27:19;;;;;;;4.05;2.55;;;9.80;99.90;;;;;;4888723;29;20632;-57
2022/05/31 05:32:54;;;;;;;5.88;2.30;;;9.70;99.90;;;;;;4874974;29;20061;-58
2022/05/31 05:35:27;;;;;;;5.43;2.40;;;9.80;99.90;;;;;;4873149;29;20057;-55
2022/05/31 05:38:09;;;;;;;4.03;2.03;;;9.80;99.90;;;;;;4897229;29;20620;-56
2022/05/31 05:40:56;;;;;;;2.90;1.92;;;9.80;99.90;;;;;;4886761;29;20096;-56
2022/05/31 05:43:41;;;;;;;6.00;2.40;;;9.80;99.90;;;;;;4884824;29;20060;-57
2022/05/31 05:46:16;;;;;;;5.60;2.10;;;9.90;99.90;;;;;;4892340;29;20053;-56
2022/05/31 05:48:45;;;;;;;4.35;2.08;;;9.80;99.90;;;;;;4895628;29;20525;-58
2022/05/31 05:51:14;;;;;;;6.20;2.58;;;9.80;99.90;;;;;;4894661;29;20481;-57
2022/05/31 05:54:03;;;;;;;5.30;2.17;;;9.90;99.90;;;;;;4893465;29;20048;-58
2022/05/31 05:56:49;;;;;;;6.25;2.50;;;9.90;99.90;;;;;;4868599;29;20528;-57
2022/05/31 05:59:52;;;;;;;4.63;2.40;;;9.90;99.90;;;;;;4890373;29;20060;-57
2022/05/31 06:02:41;;;;;;;5.13;1.88;;;10.00;99.90;;;;;;4890231;29;20045;-56
2022/05/31 06:05:35;;;;;;;4.28;2.00;;;10.00;99.90;;;;;;4890639;29;20064;-57
2022/05/31 06:08:10;;;;;;;4.13;2.00;;;10.00;99.90;;;;;;4894392;29;20048;-57
2022/05/31 06:10:52;;;;;;;4.30;1.83;;;10.00;99.90;;;;;;4892114;29;20908;-58
2022/05/31 06:13:43;;;;;;;3.38;2.03;;;10.00;99.90;;;;;;4883884;29;20508;-56
2022/05/31 06:16:13;;;;;;;5.22;2.08;;;10.00;99.90;;;;;;4875637;29;20064;-57
2022/05/31 06:18:48;;;;;;;3.83;2.10;;;10.00;99.90;;;;;;4895415;29;20033;-56
2022/05/31 06:21:20;;;;;;;3.42;2.40;;;10.00;99.90;;;;;;4881036;29;20404;-58
2022/05/31 06:23:50;;;;;;;4.90;2.20;;;10.00;99.90;;;;;;4877732;29;20048;-57
2022/05/31 06:26:18;;;;;;;3.97;2.28;;;10.00;99.90;;;;;;4882313;29;20064;-58
2022/05/31 06:28:56;;;;;;;4.68;2.42;;;10.00;99.90;;;;;;4891498;29;20056;-57
2022/05/31 06:31:24;;;;;;;3.88;2.45;;;10.10;99.90;;;;;;4893582;29;20053;-56
2022/05/31 06:33:52;;;;;;;5.90;2.40;;;10.10;99.90;;;;;;4891357;29;20405;-57
2022/05/31 06:36:24;;;;;;;3.30;2.08;;;10.10;99.90;;;;;;4863885;29;20056;-56
2022/05/31 06:38:53;;;;;;;4.25;2.22;;;10.10;99.90;;;;;;4893584;29;20048;-57
2022/05/31 06:41:21;;;;;;;3.58;2.40;;;10.10;99.90;;;;;;4876079;29;20069;-57
2022/05/31 06:44:14;;;;;;;4.97;2.38;;;10.10;99.90;;;;;;4889756;29;20049;-57
2022/05/31 06:47:01;;;;;;;3.28;2.42;;;10.20;99.90;;;;;;4878224;29;20505;-57
2022/05/31 06:49:30;;;;;;;5.65;2.40;;;10.30;99.90;;;;;;4892037;29;20472;-57
2022/05/31 06:58:35;;;;;;;4.18;1.98;;;10.60;99.90;;;;;;4890569;29;20057;-58
2022/05/31 07:01:09;;;;;;;8.38;2.72;;;10.80;99.90;;;;;;4880116;29;20496;-57
2022/05/31 07:03:37;;;;;;;4.20;2.10;;;11.00;99.90;;;;;;4891769;29;20056;-57
2022/05/31 07:06:05;;;;;;;3.97;2.13;;;11.10;99.90;;;;;;4891012;29;20055;-57
2022/05/31 07:08:33;;;;;;;2.42;1.60;;;11.20;99.90;;;;;;4884217;29;20052;-57
2022/05/31 07:11:21;;;;;;;2.95;1.85;;;11.20;99.90;;;;;;4876004;29;20051;-57
2022/05/31 07:14:18;;;;;;;2.67;1.92;;;11.30;99.90;;;;;;4871334;29;20061;-57
2022/05/31 07:17:05;;;;;;;2.75;1.85;;;11.30;99.90;;;;;;4887772;29;20501;-57
2022/05/31 07:19:47;;;;;;;8.50;2.00;;;11.40;99.90;;;;;;4895263;29;20052;-57
2022/05/31 07:22:39;;;;;;;3.28;2.20;;;11.50;99.90;;;;;;4896485;29;20059;-58
2022/05/31 07:25:30;;;;;;;3.42;2.20;;;11.50;99.90;;;;;;4894126;29;20532;-57
2022/05/31 07:28:08;;;;;;;7.90;4.28;;;11.60;99.90;;;;;;4888515;29;20390;-58
2022/05/31 07:30:38;;;;;;;9.45;3.78;;;11.60;99.90;;;;;;4895118;29;20060;-58
2022/05/31 07:33:13;;;;;;;8.63;4.47;;;11.50;99.90;;;;;;4893516;29;20523;-58
2022/05/31 07:36:05;;;;;;;6.68;4.07;;;11.50;99.90;;;;;;4894251;29;20045;-57
2022/05/31 07:38:41;;;;;;;4.90;2.88;;;11.50;99.90;;;;;;4872321;29;20053;-57
2022/05/31 07:41:09;;;;;;;5.68;2.70;;;11.60;99.90;;;;;;4895085;29;20049;-57
2022/05/31 07:43:38;;;;;;;5.70;2.60;;;11.50;99.90;;;;;;4869487;29;20056;-57
2022/05/31 07:46:10;;;;;;;3.97;2.60;;;11.60;99.90;;;;;;4876810;29;20063;-58
2022/05/31 07:48:38;;;;;;;2.65;2.33;;;11.60;99.90;;;;;;4893814;29;20053;-57
2022/05/31 07:51:27;;;;;;;2.63;2.13;;;11.70;99.90;;;;;;4888642;29;20048;-57
2022/05/31 07:54:15;;;;;;;3.85;2.47;;;11.80;99.90;;;;;;4886700;29;20049;-58
2022/05/31 07:57:05;;;;;;;3.10;2.13;;;11.70;99.90;;;;;;4889847;29;20413;-59
2022/05/31 07:59:51;;;;;;;5.63;2.53;;;11.80;99.90;;;;;;4891856;29;20505;-61
2022/05/31 08:02:48;;;;;;;3.75;2.53;;;11.80;99.90;;;;;;4889005;29;20131;-57
2022/05/31 08:05:16;;;;;;;4.53;2.40;;;11.70;99.90;;;;;;4885152;29;20053;-57
2022/05/31 08:07:44;;;;;;;3.72;2.58;;;11.70;99.90;;;;;;4885181;29;20522;-58
2022/05/31 08:10:13;;;;;;;4.30;2.55;;;11.70;99.90;;;;;;4892988;29;20060;-57
2022/05/31 08:12:41;;;;;;;5.80;2.65;;;11.60;99.90;;;;;;4890599;29;20512;-58
2022/05/31 08:15:10;;;;;;;4.18;2.28;;;11.60;99.90;;;;;;4891279;29;20057;-57
2022/05/31 08:17:39;;;;;;;4.00;2.38;;;11.70;99.90;;;;;;4891900;29;20064;-57
2022/05/31 08:20:08;;;;;;;7.32;2.75;;;11.70;99.90;;;;;;4893692;29;20511;-58
2022/05/31 08:22:35;;;;;;;2.25;2.05;;;11.80;99.90;;;;;;4888643;29;20048;-57
2022/05/31 08:25:04;;;;;;;3.42;2.72;;;11.90;99.90;;;;;;4890468;29;20064;-58
2022/05/31 08:27:34;;;;;;;3.47;2.63;;;12.10;99.90;;;;;;4890449;29;20052;-58
2022/05/31 08:30:06;;;;;;;4.20;2.50;;;12.20;99.90;;;;;;4891673;29;20048;-58
2022/05/31 08:32:35;;;;;;;2.72;2.53;;;12.30;99.90;;;;;;4894092;29;20056;-59
2022/05/31 08:35:04;;;;;;;8.25;2.33;;;12.50;99.90;;;;;;4888259;29;20044;-58
2022/05/31 08:37:36;;;;;;;2.63;1.77;;;12.70;99.90;;;;;;4895136;29;20532;-58
2022/05/31 08:40:04;;;;;;;4.53;2.13;;;12.90;99.90;;;;;;4892882;29;20041;-58
2022/05/31 08:43:12;;;;;;;7.40;2.08;;;13.00;99.90;;;;;;4886235;29;20056;-58
2022/05/31 08:45:53;;;;;;;4.80;1.85;;;13.00;99.90;;;;;;4837034;29;20046;-59
2022/05/31 08:48:32;;;;;;;2.90;1.77;;;13.10;99.90;;;;;;4848332;29;20438;-57
2022/05/31 08:57:05;;;;;;;4.28;1.95;;;13.40;99.90;;;;;;4893057;29;20060;-58
2022/05/31 09:00:08;;;;;;;2.53;1.80;;;13.50;99.90;;;;;;4892758;29;20480;-59
2022/05/31 09:02:47;;;;;;;4.78;1.60;;;13.50;99.90;;;;;;4893172;29;20060;-59
2022/05/31 09:05:31;;;;;;;5.57;2.03;;;13.30;99.90;;;;;;4892806;29;20528;-57
2022/05/31 09:08:36;;;;;;;2.78;1.92;;;13.10;99.90;;;;;;4885100;29;20060;-56
2022/05/31 09:11:20;;;;;;;3.15;2.00;;;13.00;99.90;;;;;;4836918;29;20055;-59
2022/05/31 09:14:06;;;;;;;3.30;1.77;;;12.80;99.90;;;;;;4888461;29;20052;-57
2022/05/31 09:16:45;;;;;;;5.57;1.77;;;12.80;99.90;;;;;;4889734;29;20049;-57
2022/05/31 09:19:45;;;;;;;7.28;2.50;;;12.90;99.90;;;;;;4889916;29;20059;-57
2022/05/31 09:22:15;;;;;;;5.10;1.70;;;13.00;99.90;;;;;;4880918;29;20040;-57
2022/05/31 09:24:45;;;;;;;2.22;1.33;;;13.10;99.90;;;;;;4893345;29;20064;-58
2022/05/31 09:27:24;;;;;;;1.70;1.60;;;13.20;99.90;;;;;;4893787;29;20055;-57
2022/05/31 09:30:04;;;;;;;8.27;1.25;;;13.10;99.90;;;;;;4889969;29;20065;-58
2022/05/31 09:32:57;;;;;;;3.00;1.45;;;13.10;99.90;;;;;;4880597;29;20055;-56
2022/05/31 09:35:29;;;;;;;4.20;1.58;;;13.10;99.90;;;;;;4890670;29;20040;-58
2022/05/31 09:38:19;;;;;;;5.32;1.80;;;13.00;99.90;;;;;;4889804;29;20063;-59
2022/05/31 09:41:05;;;;;;;3.60;1.73;;;13.00;99.90;;;;;;4889187;29;20056;-57
2022/05/31 09:43:43;;;;;;;3.33;1.33;;;13.00;99.90;;;;;;4881566;29;20401;-58
2022/05/31 09:46:19;;;;;;;2.38;0.90;;;13.10;99.90;;;;;;4893960;29;20063;-58
2022/05/31 09:48:50;;;;;;;4.35;1.23;;;13.00;99.90;;;;;;4899414;29;20506;-58
2022/05/31 09:51:18;;;;;;;3.25;0.73;;;12.90;99.90;;;;;;4888568;29;20069;-56
2022/05/31 09:57:10;;;;;;;7.20;1.40;;;12.40;99.90;;;;;;4861384;29;20063;-58
2022/05/31 10:00:03;;;;;;;2.67;1.50;;;12.30;99.90;;;;;;4891822;29;20053;-59
2022/05/31 10:02:57;;;;;;;2.28;1.70;;;12.20;99.90;;;;;;4891181;29;20438;-59
2022/05/31 10:05:25;;;;;;;2.78;1.80;;;12.30;99.90;;;;;;4891516;29;20052;-59
2022/05/31 10:07:54;;;;;;;2.40;1.70;;;12.40;99.90;;;;;;4894130;29;20049;-58
2022/05/31 10:10:32;;;;;;;4.70;1.92;;;12.40;99.90;;;;;;4891139;29;20045;-58
2022/05/31 10:13:09;;;;;;;5.90;2.80;;;12.60;99.90;;;;;;4887098;29;20053;-58
2022/05/31 10:15:50;;;;;;;8.68;2.83;;;12.60;99.90;;;;;;4892398;29;20401;-58
2022/05/31 10:18:30;;;;;;;24.63;5.47;;;12.60;99.90;;;;;;4892998;29;20057;-57
2022/05/31 10:20:59;;;;;;;20.35;4.40;;;12.40;99.90;;;;;;4875243;29;20079;-57
2022/05/31 10:24:06;;;;;;;32.30;7.13;;;12.20;99.90;;;;;;4888728;29;20055;-58
2022/05/31 10:27:26;;;;;;;12.80;2.97;;;12.20;99.90;;;;;;4869284;29;20056;-58
2022/05/31 10:30:15;;;;;;;6.90;2.35;;;12.30;99.90;;;;;;4894412;29;20392;-57
2022/05/31 10:33:17;;;;;;;22.60;4.65;;;12.30;99.90;;;;;;4891248;29;20082;-59
2022/05/31 10:35:46;;;;;;;5.53;2.73;;;12.40;99.90;;;;;;4890618;29;20045;-57
2022/05/31 10:38:17;;;;;;;3.55;1.85;;;12.40;99.90;;;;;;4896113;29;20413;-56
2022/05/31 10:41:11;;;;;;;2.65;1.80;;;12.40;99.90;;;;;;4878673;29;20044;-60
2022/05/31 10:43:40;;;;;;;5.22;1.90;;;12.30;99.90;;;;;;4894880;29;20529;-57
2022/05/31 10:46:25;;;;;;;0.80;0.80;;;12.40;99.90;;;;;;4896368;29;20055;-59
2022/05/31 10:48:58;;;;;;;2.28;0.82;;;12.30;99.90;;;;;;4893889;29;20052;-61
2022/05/31 10:51:34;;;;;;;0.57;0.50;;;12.30;99.90;;;;;;4894068;29;20217;-59
2022/05/31 10:54:31;;;;;;;1.25;0.90;;;12.30;99.90;;;;;;4888109;29;20531;-60
2022/05/31 10:57:18;;;;;;;0.98;0.85;;;12.30;99.90;;;;;;4895201;29;20052;-57
2022/05/31 11:00:08;;;;;;;1.00;0.80;;;12.40;99.90;;;;;;4877497;29;20045;-59
2022/05/31 11:02:59;;;;;;;;;;;12.60;99.90;;;;;;4890414;29;20597;-58
2022/05/31 11:05:56;;;;;;;2.60;1.60;;;12.90;99.90;;;;;;4890338;29;20753;-58
2022/05/31 11:11:40;;;;;;;2.80;1.33;;;13.20;99.90;;;;;;4892150;29;20052;-58
2022/05/31 11:14:26;;;;;;;1.65;1.05;;;13.40;99.90;;;;;;4893194;29;20056;-58
2022/05/31 11:16:56;;;;;;;4.80;1.60;;;13.60;99.90;;;;;;4895805;29;20049;-58
2022/05/31 11:19:33;;;;;;;4.72;2.22;;;13.80;99.90;;;;;;4879020;29;20063;-59
2022/05/31 11:22:18;;;;;;;7.10;2.97;;;14.10;99.90;;;;;;4896632;29;20048;-58
2022/05/31 11:24:55;;;;;;;4.15;2.88;;;14.20;99.90;;;;;;4893803;29;20061;-58
2022/05/31 11:27:31;;;;;;;5.57;2.42;;;14.20;99.90;;;;;;4896394;29;20501;-59
2022/05/31 11:30:04;;;;;;;2.58;2.30;;;14.20;99.90;;;;;;4876270;29;20052;-58
2022/05/31 11:32:56;;;;;;;5.53;2.33;;;14.20;99.90;;;;;;4892584;29;20052;-58
2022/05/31 11:35:30;;;;;;;2.80;1.42;;;14.30;99.90;;;;;;4876395;29;20065;-59
2022/05/31 11:38:08;;;;;;;1.70;1.40;;;14.40;99.90;;;;;;4884267;29;20485;-58
2022/05/31 11:40:58;;;;;;;2.13;1.10;;;14.60;99.90;;;;;;4895123;29;20617;-59
2022/05/31 11:43:28;;;;;;;1.58;0.90;;;14.70;99.90;;;;;;4862071;29;20059;-58
2022/05/31 11:46:12;;;;;;;4.03;1.17;;;14.90;99.90;;;;;;4891803;29;20108;-59
2022/05/31 11:48:58;;;;;;;3.22;2.00;;;15.20;99.90;;;;;;4889877;29;20048;-58
2022/05/31 11:51:51;;;;;;;6.45;2.08;;;15.50;99.90;;;;;;4877348;29;20669;-58
2022/05/31 11:54:21;;;;;;;9.05;3.25;;;15.70;99.90;;;;;;4900552;29;20051;-59
2022/05/31 11:57:05;;;;;;;7.05;3.20;;;15.70;99.90;;;;;;4890741;29;20490;-59
2022/05/31 11:59:41;;;;;;;4.30;2.42;;;15.50;99.90;;;;;;4886516;29;20064;-59
2022/05/31 12:02:12;;;;;;;4.65;2.20;;;15.10;99.90;;;;;;4894872;29;20049;-59
2022/05/31 12:04:49;;;;;;;2.70;1.60;;;14.60;99.90;;;;;;4893966;29;20456;-58
2022/05/31 12:07:31;;;;;;;2.75;1.23;;;13.90;99.90;;;;;;4892921;29;20048;-59
2022/05/31 12:10:11;;;;;;;1.80;1.70;;;13.40;99.90;;;;;;4892722;29;20052;-58
2022/05/31 12:12:42;;;;;;;3.55;2.67;;;13.00;99.90;;;;;;4891307;29;20048;-58
2022/05/31 12:15:21;;;;;;;4.78;2.50;;;13.00;99.90;;;;;;4893168;29;20508;-58
2022/05/31 12:18:04;;;;;;;3.90;2.60;;;13.30;99.90;;;;;;4895728;29;20063;-58
2022/05/31 12:20:44;;;;;;;6.75;2.22;;;13.70;99.90;;;;;;4890999;29;20052;-58
2022/05/31 12:23:25;;;;;;;3.05;0.70;;;13.90;99.90;;;;;;4892292;29;20044;-59
2022/05/31 12:25:56;;;;;;;1.35;0.70;;;13.90;99.90;;;;;;4891957;29;20056;-58
2022/05/31 12:28:31;;;;;;;1.58;0.60;;;13.70;99.90;;;;;;4889369;29;20044;-57
2022/05/31 12:31:21;;;;;;;1.05;0.70;;;13.70;99.90;;;;;;4890940;29;20051;-57
2022/05/31 12:33:49;;;;;;;0.90;0.63;;;13.70;99.90;;;;;;4884097;29;20053;-58
2022/05/31 12:36:20;;;;;;;2.20;1.33;;;13.70;99.90;;;;;;4893087;29;20048;-58
2022/05/31 12:38:54;;;;;;;3.33;1.15;;;13.80;99.90;;;;;;4894079;29;20052;-59
2022/05/31 12:41:43;;;;;;;5.50;2.50;;;13.80;99.90;;;;;;4894426;29;20045;-58
2022/05/31 12:44:28;;;;;;;2.55;1.58;;;14.00;99.90;;;;;;4885417;29;20048;-59
2022/05/31 12:47:15;;;;;;;4.25;1.90;;;14.40;99.90;;;;;;4892722;29;20059;-58
2022/05/31 12:50:04;;;;;;;4.70;2.50;;;15.00;99.90;;;;;;4888747;29;20045;-58
2022/05/31 12:55:28;;;;;;;6.82;3.45;;;16.60;99.90;;;;;;4893965;29;20525;-59
2022/05/31 12:58:28;;;;;;;5.38;3.50;;;17.50;99.90;;;;;;4894918;29;20497;-59
2022/05/31 13:01:11;;;;;;;;;;;18.20;99.90;;;;;;4889018;29;20049;-58
2022/05/31 13:03:51;;;;;;;3.78;2.60;;;18.70;99.90;;;;;;4889715;29;19930;-59
2022/05/31 13:06:28;;;;;;;3.58;1.90;;;18.90;99.90;;;;;;4887475;29;20052;-58
2022/05/31 13:09:31;;;;;;;4.30;1.40;;;19.20;99.90;;;;;;4893294;29;20045;-59
2022/05/31 13:20:39;;;;;;;2.43;1.40;;;17.90;99.90;;;;;;4883315;29;20064;-58
2022/05/31 13:23:08;;;;;;;1.75;1.63;;;17.40;99.90;;;;;;4885319;29;20056;-58
2022/05/31 13:25:46;;;;;;;2.60;1.88;;;17.00;99.90;;;;;;4891374;29;20048;-59
2022/05/31 13:28:39;;;;;;;3.22;1.20;;;16.80;99.90;;;;;;4894717;29;20048;-58
2022/05/31 13:31:15;;;;;;;1.10;0.93;;;17.20;99.90;;;;;;4887364;29;20049;-58
2022/05/31 13:33:47;;;;;;;1.70;1.58;;;17.80;99.90;;;;;;4891733;29;20055;-59
2022/05/31 13:36:22;;;;;;;2.78;1.77;;;18.50;99.90;;;;;;4892650;29;20405;-59
2022/05/31 13:38:58;;;;;;;1.60;1.33;;;18.80;98.90;;;;;;4889771;29;20057;-58
2022/05/31 13:41:26;;;;;;;2.08;1.30;;;18.60;97.60;;;;;;4874310;29;20053;-59
2022/05/31 13:44:01;;;;;;;4.20;1.50;;;18.40;98.70;;;;;;4882338;29;20047;-59
2022/05/31 13:46:45;;;;;;;2.55;1.13;;;18.60;99.10;;;;;;4889260;29;20060;-58
2022/05/31 13:49:34;;;;;;;1.58;1.10;;;19.10;99.90;;;;;;4890902;29;21807;-59
2022/05/31 13:52:05;;;;;;;2.05;1.10;;;19.60;96.80;;;;;;4888321;29;20052;-59
2022/05/31 13:54:42;;;;;;;1.80;1.52;;;19.80;97.50;;;;;;4885327;29;20055;-59
2022/05/31 13:57:15;;;;;;;4.28;1.70;;;19.80;95.00;;;;;;4893609;29;20044;-59
2022/05/31 13:59:55;;;;;;;2.80;0.90;;;19.90;96.20;;;;;;4887504;29;20500;-58
2022/05/31 14:02:48;;;;;;;1.17;0.80;;;20.20;94.50;;;;;;4893569;29;20052;-59
2022/05/31 14:05:20;;;;;;;0.90;0.68;;;20.60;92.20;;;;;;4896414;29;20065;-59
2022/05/31 14:07:49;;;;;;;2.63;0.90;;;20.90;90.70;;;;;;4893615;29;20049;-59
2022/05/31 14:10:19;;;;;;;2.92;1.90;;;21.10;90.00;;;;;;4874856;29;20600;-60
2022/05/31 14:12:47;;;;;;;;;;;21.30;91.70;;;;;;4895278;29;20048;-59
2022/05/31 14:15:29;;;;;;;1.50;0.88;;;21.60;91.00;;;;;;4896648;29;19931;-60
2022/05/31 14:18:09;;;;;;;2.38;0.60;;;21.60;90.50;;;;;;4891844;29;20063;-58